Nellis Air Force Base
KLSV : now visible

Airfield :











YOU CAN JOIN US ON...

 
LOGIN :

Register | Disclaimer

   EN    FR    IT 

 









Legend :    VFR   Marginal VFR   IFR   Intensive IFR   Very Intensive IFR
Visi :
Ceiling :
>= 8 km
>= 3000ft
5 to 8 km
1000 to 3000 ft
1500m to 5 km
500 to 1000 ft
800 to 1500m
200 to 500 ft
< 800m
< 200 ft
Symbols :   Thunderstorms  Fog  Heavy snow  Heavy precipitations  Wind > 20 kt






- Airport Elevation : 1870 ft


KLSV - Nellis Air Force Base

EXPIRED METARs :
  • 082058Z AUTO 18006KT 10SM CLR 17/05 A2993 RMK AO2 SLP128 T01720045 57029 $
  • 081958Z AUTO 22004KT 10SM CLR 17/05 A2995 RMK AO2 SLP134 T01660052 $

TAF TAF KLSV
Valid from the 08 at 23:00 until the 10 at 05:00 UTC


082300Z 0823/1005 15007KT 9999 FEW080 SCT250 QNH2986INS
BECMG 0905/0906 03005KT 9999 FEW100 SCT120 QNH2978INS
BECMG 0916/0917 22020G25KT 9999 VCSH FEW080 BKN100 520009 QNH2972INS
TEMPO 0918/0921 22025G35KT 9000 -SHRA 530009 TX17/0823Z TN03/0914Z
KZLA FIR / North America



MET'MAP, your aeronautical weather chart ! - Copyright ORBIFLY December 2007 - Disclaimer

ORBIFLY MET'MAP TEAM :

Programming & Development : Alexandra Zaïnal
Concept & original design : Baudouin d'Aumeries
Assistance for programming : Marc-Olivier Méhu
Technical & hardware support : Manuel Goepfert

Contact : metmap@orbifly.com




SOURCES & CREDITS :

   NOAA       Earth
Advisory